Time;durP1;ratioP1;P1;durP2;ratioP2;P2;SDS_P1;SDS_P2;PMS_P1;PMS_P2;Temp;Humidity;BMP_temperature;BMP_pressure;BME280_temperature;BME280_humidity;BME280_pressure;Samples;Min_cycle;Max_cycle;Signal;HPM_P1;HPM_P2
2023/07/21 00:01:16;;;;;;;5.78;5.18;;;17.70;50.00;;;;;;5095224;28;20442;-74
2023/07/21 00:03:43;;;;;;;6.63;6.00;;;17.70;50.10;;;;;;5092365;28;20044;-71
2023/07/21 00:06:09;;;;;;;6.95;6.35;;;17.60;50.00;;;;;;5093457;28;20047;-74
2023/07/21 00:08:36;;;;;;;6.47;5.88;;;17.50;50.00;;;;;;5095942;28;20028;-71
2023/07/21 00:11:03;;;;;;;6.97;6.07;;;17.50;50.10;;;;;;5098651;28;20036;-70
2023/07/21 00:13:29;;;;;;;5.63;5.13;;;17.40;50.00;;;;;;5092208;28;20024;-73
2023/07/21 00:15:56;;;;;;;7.03;6.32;;;17.40;50.20;;;;;;5105730;28;20040;-73
2023/07/21 00:18:23;;;;;;;6.88;6.13;;;17.40;50.30;;;;;;5093889;28;20039;-72
2023/07/21 00:20:50;;;;;;;7.95;6.32;;;17.30;50.20;;;;;;5085264;28;20119;-76
2023/07/21 00:23:19;;;;;;;6.35;5.72;;;17.20;50.20;;;;;;5082757;28;20048;-73
2023/07/21 00:25:46;;;;;;;7.18;6.47;;;17.20;50.30;;;;;;5083039;28;20060;-79
2023/07/21 00:28:13;;;;;;;7.30;6.28;;;17.20;50.40;;;;;;5077623;28;20059;-79
2023/07/21 00:30:39;;;;;;;7.20;6.10;;;17.10;50.40;;;;;;5099200;28;20071;-71
2023/07/21 00:33:05;;;;;;;7.30;6.60;;;17.10;50.50;;;;;;5082342;28;20511;-72
2023/07/21 00:35:33;;;;;;;7.63;6.25;;;17.00;50.50;;;;;;5080961;28;20054;-75
2023/07/21 00:38:00;;;;;;;9.40;6.20;;;17.00;50.60;;;;;;5080297;28;20427;-75
2023/07/21 00:40:27;;;;;;;9.52;6.55;;;16.90;50.60;;;;;;5083231;28;20032;-73
2023/07/21 00:42:54;;;;;;;6.55;5.95;;;16.90;50.70;;;;;;5079656;28;20046;-79
2023/07/21 00:45:21;;;;;;;7.10;6.45;;;16.80;50.60;;;;;;5082503;28;20135;-76
2023/07/21 00:47:48;;;;;;;8.10;7.05;;;16.80;50.80;;;;;;5092971;28;20042;-71
2023/07/21 00:50:15;;;;;;;8.75;6.72;;;16.70;50.70;;;;;;5084282;28;20036;-77
2023/07/21 00:52:41;;;;;;;7.63;6.60;;;16.70;50.80;;;;;;5083866;28;20592;-74
2023/07/21 00:55:09;;;;;;;8.43;7.07;;;16.70;51.00;;;;;;5091445;28;20028;-75
2023/07/21 00:57:37;;;;;;;7.30;6.60;;;16.60;50.90;;;;;;5070935;28;20037;-72
2023/07/21 01:00:11;;;;;;;7.88;7.07;;;16.60;51.00;;;;;;5081179;28;20098;-73
2023/07/21 01:02:38;;;;;;;9.10;6.20;;;16.50;50.90;;;;;;5076438;28;20702;-72
2023/07/21 01:05:04;;;;;;;7.47;6.70;;;16.50;51.10;;;;;;5072865;28;20122;-74
2023/07/21 01:07:31;;;;;;;9.75;6.63;;;16.50;51.20;;;;;;5077758;28;20032;-73
2023/07/21 01:09:58;;;;;;;7.45;6.75;;;16.40;51.10;;;;;;5088832;28;20050;-76
2023/07/21 01:12:25;;;;;;;6.90;6.25;;;16.30;51.10;;;;;;5082980;28;20039;-75
2023/07/21 01:14:52;;;;;;;7.90;6.97;;;16.30;51.20;;;;;;5084180;28;20408;-71
2023/07/21 01:17:19;;;;;;;8.80;7.88;;;16.20;51.20;;;;;;5085543;28;20053;-72
2023/07/21 01:19:48;;;;;;;7.15;6.40;;;16.20;51.30;;;;;;5096112;28;20789;-73
2023/07/21 01:22:55;;;;;;;7.97;7.18;;;16.20;51.40;;;;;;5082973;28;20036;-75
2023/07/21 01:25:23;;;;;;;7.68;6.93;;;16.10;51.50;;;;;;5052032;28;20134;-76
2023/07/21 01:27:52;;;;;;;7.90;6.15;;;16.00;51.30;;;;;;5086219;28;20059;-71
2023/07/21 01:30:19;;;;;;;7.47;6.25;;;16.00;51.40;;;;;;5086598;28;20046;-73
2023/07/21 01:32:50;;;;;;;7.85;7.07;;;16.00;51.60;;;;;;5083857;28;20114;-74
2023/07/21 01:35:18;;;;;;;7.30;6.60;;;15.90;51.50;;;;;;5072898;28;20079;-73
2023/07/21 01:37:46;;;;;;;7.80;7.00;;;15.90;51.60;;;;;;5091431;28;20045;-75
2023/07/21 01:40:21;;;;;;;7.30;6.60;;;15.90;51.80;;;;;;5089489;28;20023;-75
2023/07/21 01:42:56;;;;;;;7.68;6.88;;;15.80;51.70;;;;;;5081485;28;20539;-71
2023/07/21 01:45:24;;;;;;;8.63;6.82;;;15.80;51.80;;;;;;5082040;28;20150;-74
2023/07/21 01:47:55;;;;;;;8.68;6.75;;;15.80;51.90;;;;;;5066285;28;20514;-72
2023/07/21 01:50:28;;;;;;;7.90;5.88;;;15.70;51.80;;;;;;5079000;28;20501;-71
2023/07/21 01:53:03;;;;;;;7.85;6.22;;;15.60;51.70;;;;;;5094999;28;20040;-72
2023/07/21 01:55:55;;;;;;;6.80;5.93;;;15.60;51.90;;;;;;5089832;28;20609;-72
2023/07/21 01:58:28;;;;;;;7.38;6.60;;;15.50;51.70;;;;;;5095183;27;20088;-72
2023/07/21 02:01:21;;;;;;;8.90;5.88;;;15.50;51.80;;;;;;5074411;28;20043;-71
2023/07/21 02:03:52;;;;;;;7.47;5.78;;;15.50;51.80;;;;;;5089622;28;20428;-70
2023/07/21 02:06:21;;;;;;;8.02;6.60;;;15.40;51.70;;;;;;5097939;28;20024;-72
2023/07/21 02:08:50;;;;;;;10.07;6.50;;;15.40;51.80;;;;;;5077911;28;20036;-71
2023/07/21 02:11:20;;;;;;;7.05;6.30;;;15.40;51.90;;;;;;5084587;28;20028;-69
2023/07/21 02:14:06;;;;;;;7.93;6.93;;;15.30;51.80;;;;;;5079367;28;20036;-71
2023/07/21 02:16:33;;;;;;;6.47;5.35;;;15.30;51.90;;;;;;5086837;28;20484;-70
2023/07/21 02:19:00;;;;;;;7.22;6.53;;;15.20;51.80;;;;;;5094319;28;20489;-70
2023/07/21 02:21:29;;;;;;;8.27;6.05;;;15.20;52.00;;;;;;5084367;27;20039;-70
2023/07/21 02:23:58;;;;;;;7.40;6.03;;;15.10;51.90;;;;;;5084469;28;20031;-71
2023/07/21 02:26:25;;;;;;;8.27;7.15;;;15.10;52.10;;;;;;5083910;28;20051;-70
2023/07/21 02:28:51;;;;;;;8.93;7.18;;;15.10;52.10;;;;;;5088900;28;20028;-70
2023/07/21 02:31:18;;;;;;;7.15;6.40;;;15.00;52.10;;;;;;5065360;28;20032;-71
2023/07/21 02:33:44;;;;;;;6.72;6.07;;;14.90;52.10;;;;;;5082812;28;20582;-72
2023/07/21 02:36:10;;;;;;;9.13;7.63;;;14.90;52.20;;;;;;5085876;28;20064;-71
2023/07/21 02:38:36;;;;;;;8.52;7.35;;;14.90;52.30;;;;;;5082467;28;20046;-70
2023/07/21 02:41:04;;;;;;;8.43;6.82;;;14.90;52.40;;;;;;5089888;28;20035;-71
2023/07/21 02:43:31;;;;;;;7.25;6.45;;;14.80;52.40;;;;;;5075832;28;20039;-70
2023/07/21 02:45:57;;;;;;;6.97;5.85;;;14.80;52.40;;;;;;5081588;28;20061;-71
2023/07/21 02:48:23;;;;;;;7.35;6.22;;;14.80;52.50;;;;;;5080502;28;20082;-71
2023/07/21 02:50:51;;;;;;;6.75;5.90;;;14.70;52.30;;;;;;5086006;28;20039;-69
2023/07/21 02:53:19;;;;;;;7.22;6.53;;;14.70;52.40;;;;;;5095185;28;20519;-73
2023/07/21 02:55:49;;;;;;;8.10;6.65;;;14.60;52.30;;;;;;5091834;28;20036;-72
2023/07/21 02:58:16;;;;;;;8.45;6.25;;;14.60;52.30;;;;;;5085249;28;20686;-76
2023/07/21 03:00:42;;;;;;;6.97;5.93;;;14.60;52.40;;;;;;5091249;28;20037;-71
2023/07/21 03:03:19;;;;;;;7.28;6.57;;;14.60;52.50;;;;;;5084035;28;20074;-71
2023/07/21 03:05:49;;;;;;;6.80;6.10;;;14.50;52.40;;;;;;5091052;28;20767;-71
2023/07/21 03:08:15;;;;;;;7.38;5.72;;;14.40;52.30;;;;;;5094794;28;20036;-71
2023/07/21 03:10:41;;;;;;;7.32;6.35;;;14.40;52.40;;;;;;5090115;28;20042;-71
2023/07/21 03:13:08;;;;;;;7.95;6.65;;;14.30;52.30;;;;;;5089213;28;20101;-73
2023/07/21 03:15:37;;;;;;;10.18;7.07;;;14.30;52.40;;;;;;5086305;28;20028;-71
2023/07/21 03:18:06;;;;;;;7.22;6.53;;;14.30;52.50;;;;;;5069016;28;20050;-70
2023/07/21 03:20:49;;;;;;;8.15;6.47;;;14.30;52.60;;;;;;5086763;28;20016;-70
2023/07/21 03:23:15;;;;;;;7.80;6.82;;;14.20;52.50;;;;;;5089761;28;20048;-71
2023/07/21 03:25:42;;;;;;;7.95;7.03;;;14.20;52.60;;;;;;5095465;28;20103;-69
2023/07/21 03:28:08;;;;;;;6.75;6.05;;;14.10;52.50;;;;;;5090602;28;20270;-69
2023/07/21 03:30:39;;;;;;;7.55;6.75;;;14.10;52.60;;;;;;5089924;28;20036;-68
2023/07/21 03:33:16;;;;;;;8.98;6.85;;;14.10;52.80;;;;;;5089734;28;20129;-69
2023/07/21 03:35:46;;;;;;;6.85;6.15;;;14.00;52.60;;;;;;5091023;28;20073;-71
2023/07/21 03:38:13;;;;;;;8.55;6.45;;;14.00;52.80;;;;;;5089659;28;20032;-72
2023/07/21 03:40:39;;;;;;;6.95;6.25;;;13.90;52.60;;;;;;5098859;28;20038;-73
2023/07/21 03:43:05;;;;;;;7.20;6.43;;;13.90;52.80;;;;;;5065617;28;20597;-73
2023/07/21 03:45:32;;;;;;;7.25;6.18;;;13.90;52.90;;;;;;5072976;28;20028;-69
2023/07/21 03:47:57;;;;;;;7.85;6.25;;;13.90;53.00;;;;;;5081433;28;20077;-69
2023/07/21 03:50:24;;;;;;;6.53;5.68;;;13.80;52.90;;;;;;5076010;28;20921;-71
2023/07/21 03:52:50;;;;;;;7.78;6.63;;;13.80;52.90;;;;;;5088550;28;20032;-69
2023/07/21 03:55:17;;;;;;;7.57;6.75;;;13.80;53.10;;;;;;5089929;28;20407;-69
2023/07/21 03:57:43;;;;;;;8.68;7.55;;;13.80;53.20;;;;;;5079081;28;20053;-70
2023/07/21 04:00:10;;;;;;;6.93;6.28;;;13.70;53.10;;;;;;5085169;28;20058;-70
2023/07/21 04:02:42;;;;;;;7.50;6.68;;;13.70;53.20;;;;;;5064818;28;20032;-69
2023/07/21 04:05:08;;;;;;;7.57;6.80;;;13.70;53.30;;;;;;5093755;28;20507;-72
2023/07/21 04:07:34;;;;;;;7.70;7.00;;;13.60;53.20;;;;;;5100130;28;20039;-71
2023/07/21 04:10:00;;;;;;;7.47;6.55;;;13.60;53.30;;;;;;5090531;28;20051;-70
2023/07/21 04:12:28;;;;;;;7.93;6.97;;;13.60;53.40;;;;;;5103185;28;20024;-76
2023/07/21 04:14:55;;;;;;;8.38;7.35;;;13.60;53.40;;;;;;5099079;28;20088;-71
2023/07/21 04:17:23;;;;;;;8.15;7.28;;;13.60;53.50;;;;;;5094309;28;20043;-72
2023/07/21 04:19:49;;;;;;;7.22;6.32;;;13.50;53.40;;;;;;5087007;28;20039;-70
2023/07/21 04:22:16;;;;;;;7.35;6.65;;;13.50;53.50;;;;;;5092343;28;20047;-69
2023/07/21 04:24:42;;;;;;;13.63;7.15;;;13.50;53.50;;;;;;5091312;28;20474;-71
2023/07/21 04:27:09;;;;;;;7.85;7.05;;;13.50;53.60;;;;;;5093264;28;20027;-71
2023/07/21 04:29:36;;;;;;;8.38;7.53;;;13.50;53.70;;;;;;5090261;28;20483;-72
2023/07/21 04:32:02;;;;;;;8.63;7.40;;;13.50;53.80;;;;;;5093594;28;20079;-76
2023/07/21 04:34:29;;;;;;;8.13;7.32;;;13.50;53.90;;;;;;5082346;28;20072;-73
2023/07/21 04:36:55;;;;;;;7.13;6.43;;;13.50;53.90;;;;;;5086089;28;20612;-72
2023/07/21 04:39:34;;;;;;;9.20;7.07;;;13.50;53.90;;;;;;5090183;28;20841;-71
2023/07/21 04:42:00;;;;;;;11.32;8.05;;;13.40;53.80;;;;;;5082317;28;20039;-72
2023/07/21 04:44:26;;;;;;;8.98;7.72;;;13.50;54.10;;;;;;5069307;28;20029;-72
2023/07/21 04:46:53;;;;;;;7.47;6.68;;;13.40;53.90;;;;;;5100977;28;20031;-70
2023/07/21 04:49:22;;;;;;;8.30;7.50;;;13.40;54.50;;;;;;5085844;28;20039;-72
2023/07/21 04:51:50;;;;;;;7.57;6.75;;;13.40;54.00;;;;;;5097215;28;20039;-70
2023/07/21 04:54:16;;;;;;;7.57;6.78;;;13.40;54.10;;;;;;5089226;28;20549;-71
2023/07/21 04:56:44;;;;;;;8.45;7.55;;;13.40;54.10;;;;;;5083222;28;20072;-73
2023/07/21 04:59:10;;;;;;;7.63;6.82;;;13.50;54.30;;;;;;5074226;28;20448;-73
2023/07/21 05:01:36;;;;;;;6.68;6.03;;;13.50;54.40;;;;;;5094090;28;20119;-71
2023/07/21 05:04:02;;;;;;;7.47;6.63;;;13.50;54.40;;;;;;5081541;28;20036;-70
2023/07/21 05:06:29;;;;;;;8.45;6.85;;;13.50;54.50;;;;;;5078044;28;20035;-71
2023/07/21 05:08:56;;;;;;;8.45;7.65;;;13.60;54.70;;;;;;5080749;28;20668;-75
2023/07/21 05:11:22;;;;;;;8.38;7.45;;;13.60;54.70;;;;;;5084692;28;20044;-73
2023/07/21 05:13:49;;;;;;;8.27;7.38;;;13.60;54.80;;;;;;5081781;28;20040;-71
2023/07/21 05:16:23;;;;;;;8.57;7.70;;;13.70;55.00;;;;;;5089017;28;20142;-71
2023/07/21 05:19:24;;;;;;;8.63;6.68;;;13.80;55.20;;;;;;4998179;28;20041;-74
2023/07/21 05:22:01;;;;;;;7.72;6.93;;;13.80;55.00;;;;;;5067738;28;20048;-72
2023/07/21 05:24:45;;;;;;;6.00;5.40;;;13.90;55.20;;;;;;5084408;28;20036;-68
2023/07/21 05:27:16;;;;;;;7.25;6.53;;;13.90;55.10;;;;;;5089557;28;20024;-69
2023/07/21 05:29:50;;;;;;;7.38;6.43;;;14.00;55.20;;;;;;5082815;28;20032;-69
2023/07/21 05:32:16;;;;;;;7.30;6.60;;;14.10;55.30;;;;;;5089961;28;20165;-70
2023/07/21 05:34:48;;;;;;;8.32;6.90;;;14.20;55.40;;;;;;5072817;28;20072;-69
2023/07/21 05:37:14;;;;;;;8.00;6.88;;;14.30;55.50;;;;;;5085609;28;20061;-70
2023/07/21 05:39:40;;;;;;;9.05;7.60;;;14.30;55.40;;;;;;5082129;28;20522;-71
2023/07/21 05:42:06;;;;;;;8.32;6.53;;;14.40;55.40;;;;;;5074547;28;20035;-69
2023/07/21 05:44:34;;;;;;;7.30;6.55;;;14.50;55.50;;;;;;5092533;27;20391;-69
2023/07/21 05:47:02;;;;;;;7.78;6.90;;;14.60;55.50;;;;;;5075043;28;20024;-69
2023/07/21 05:49:28;;;;;;;7.50;6.78;;;14.70;55.60;;;;;;5073315;28;20687;-71
2023/07/21 05:51:54;;;;;;;7.57;6.75;;;14.80;55.60;;;;;;5062486;28;20500;-71
2023/07/21 05:54:28;;;;;;;8.20;7.38;;;14.90;55.60;;;;;;5077961;28;20059;-71
2023/07/21 05:56:56;;;;;;;8.38;6.25;;;15.00;55.60;;;;;;5074224;28;20075;-71
2023/07/21 05:59:32;;;;;;;7.70;6.90;;;15.10;55.60;;;;;;5083943;28;20085;-70
2023/07/21 06:02:02;;;;;;;7.60;6.80;;;15.20;55.60;;;;;;5080925;28;20454;-72
2023/07/21 06:04:33;;;;;;;7.07;6.38;;;15.30;55.80;;;;;;5079968;28;20050;-70
2023/07/21 06:07:19;;;;;;;8.68;7.45;;;15.40;55.90;;;;;;5064547;28;20491;-70
2023/07/21 06:10:05;;;;;;;9.75;7.70;;;15.50;56.00;;;;;;5087560;28;20130;-71
2023/07/21 06:12:39;;;;;;;8.98;7.25;;;15.50;56.00;;;;;;5059822;28;20035;-69
2023/07/21 06:15:31;;;;;;;8.20;7.32;;;15.50;56.10;;;;;;5083804;28;20032;-70
2023/07/21 06:18:03;;;;;;;9.52;7.88;;;15.60;56.30;;;;;;5076880;28;20034;-70
2023/07/21 06:20:31;;;;;;;8.60;7.70;;;15.60;56.40;;;;;;5080700;28;20499;-73
2023/07/21 06:22:57;;;;;;;11.55;8.15;;;15.70;56.70;;;;;;5078454;28;20488;-69
2023/07/21 06:25:26;;;;;;;7.65;6.85;;;15.70;56.70;;;;;;5080295;28;20036;-74
2023/07/21 06:27:59;;;;;;;11.20;8.73;;;15.70;56.70;;;;;;5082655;28;20119;-73
2023/07/21 06:30:25;;;;;;;8.15;7.00;;;15.80;56.90;;;;;;5077839;28;20055;-71
2023/07/21 06:32:52;;;;;;;8.70;7.90;;;15.90;57.10;;;;;;5076917;28;20071;-69
2023/07/21 06:35:54;;;;;;;8.85;7.88;;;15.90;57.10;;;;;;5058655;28;20078;-73
2023/07/21 06:38:46;;;;;;;;;;;16.00;57.10;;;;;;5080828;28;20141;-72
2023/07/21 06:41:20;;;;;;;8.43;7.47;;;16.00;56.90;;;;;;5077326;28;20546;-71
2023/07/21 06:44:04;;;;;;;7.80;7.00;;;16.10;56.80;;;;;;5078948;28;20025;-70
2023/07/21 06:46:52;;;;;;;8.43;7.57;;;16.20;57.00;;;;;;5068692;28;20036;-71
2023/07/21 06:49:49;;;;;;;7.68;6.93;;;16.30;57.20;;;;;;5067970;28;20027;-72
2023/07/21 06:52:21;;;;;;;8.88;7.97;;;16.40;57.20;;;;;;5080052;28;20470;-72
2023/07/21 06:54:49;;;;;;;9.57;8.32;;;16.40;57.20;;;;;;5079711;28;20032;-75
2023/07/21 06:57:16;;;;;;;8.80;7.32;;;16.50;57.40;;;;;;5069502;28;20074;-73
2023/07/21 06:59:43;;;;;;;8.90;7.65;;;16.50;57.30;;;;;;5087913;27;20034;-73
2023/07/21 07:02:09;;;;;;;9.98;8.13;;;16.70;57.60;;;;;;5075535;28;20044;-74
2023/07/21 07:04:35;;;;;;;11.35;8.30;;;16.70;57.50;;;;;;5080469;28;20512;-76
2023/07/21 07:07:01;;;;;;;9.30;8.30;;;16.80;57.60;;;;;;5058415;28;20032;-72
2023/07/21 07:09:27;;;;;;;9.65;8.75;;;17.10;57.90;;;;;;5077347;28;20042;-70
2023/07/21 07:11:53;;;;;;;8.70;7.80;;;17.30;57.90;;;;;;5076086;28;20028;-75
2023/07/21 07:14:18;;;;;;;9.30;8.40;;;17.70;57.80;;;;;;5064752;28;20099;-76
2023/07/21 07:16:45;;;;;;;9.60;8.63;;;17.90;57.50;;;;;;5079414;28;20031;-69
2023/07/21 07:19:11;;;;;;;9.93;8.23;;;18.20;57.40;;;;;;5077486;28;20035;-69
2023/07/21 07:21:37;;;;;;;10.18;8.65;;;18.30;57.10;;;;;;5079119;28;20032;-71
2023/07/21 07:24:03;;;;;;;10.85;8.23;;;18.50;57.10;;;;;;5082656;28;20086;-77
2023/07/21 07:26:29;;;;;;;9.32;8.10;;;18.60;57.00;;;;;;5080056;28;20116;-69
2023/07/21 07:28:57;;;;;;;10.18;8.73;;;18.70;57.00;;;;;;5080182;28;20040;-71
2023/07/21 07:31:23;;;;;;;9.43;7.72;;;18.70;57.00;;;;;;5080104;28;20529;-72
2023/07/21 07:33:49;;;;;;;10.38;8.48;;;18.70;56.90;;;;;;5074040;28;20035;-70
2023/07/21 07:36:15;;;;;;;11.00;9.95;;;18.80;57.10;;;;;;5073351;28;20052;-70
2023/07/21 07:38:43;;;;;;;12.93;9.75;;;18.80;57.10;;;;;;5079212;28;20048;-72
2023/07/21 07:41:09;;;;;;;10.88;8.60;;;19.00;57.30;;;;;;5077264;28;21045;-70
2023/07/21 07:43:37;;;;;;;11.82;9.88;;;19.10;57.30;;;;;;5064035;28;20023;-71
2023/07/21 07:46:05;;;;;;;10.98;8.73;;;19.30;57.40;;;;;;5098503;28;20031;-70
2023/07/21 07:48:33;;;;;;;10.93;8.88;;;19.50;57.30;;;;;;5067398;28;21013;-70
2023/07/21 07:51:03;;;;;;;10.70;8.65;;;19.70;57.30;;;;;;5077956;28;20576;-69
2023/07/21 07:53:29;;;;;;;11.32;8.68;;;19.80;57.20;;;;;;5070376;28;20032;-70
2023/07/21 07:55:54;;;;;;;11.02;9.35;;;19.90;57.10;;;;;;5082003;28;20024;-70
2023/07/21 07:58:20;;;;;;;11.20;9.20;;;20.00;57.10;;;;;;5080476;28;20053;-72
2023/07/21 08:00:47;;;;;;;13.35;9.20;;;20.10;57.10;;;;;;5084089;28;20063;-69
2023/07/21 08:03:14;;;;;;;12.90;8.93;;;20.10;57.00;;;;;;5074218;28;20036;-70
2023/07/21 08:05:41;;;;;;;11.68;9.15;;;20.10;57.10;;;;;;5083472;28;20028;-73
2023/07/21 08:08:10;;;;;;;12.40;9.48;;;20.20;57.10;;;;;;5084665;28;20028;-70
2023/07/21 08:10:36;;;;;;;10.38;9.25;;;20.40;57.20;;;;;;5090020;28;20148;-70
2023/07/21 08:13:06;;;;;;;12.45;8.80;;;20.60;57.20;;;;;;5098304;28;20028;-71
2023/07/21 08:15:32;;;;;;;10.02;8.93;;;20.90;57.10;;;;;;5080088;28;20047;-70
2023/07/21 08:17:59;;;;;;;13.00;9.30;;;21.30;57.10;;;;;;5080804;28;20036;-70
2023/07/21 08:20:25;;;;;;;10.45;8.48;;;21.60;57.00;;;;;;5093190;28;20032;-68
2023/07/21 08:22:51;;;;;;;9.77;7.95;;;21.90;56.90;;;;;;5082220;28;20036;-71
2023/07/21 08:25:18;;;;;;;10.93;7.97;;;22.10;56.70;;;;;;5086130;28;20032;-70
2023/07/21 08:27:45;;;;;;;8.25;6.50;;;22.30;56.50;;;;;;5083427;28;20031;-69
2023/07/21 08:30:12;;;;;;;9.18;7.30;;;22.50;56.30;;;;;;5092747;28;20137;-70
2023/07/21 08:32:40;;;;;;;8.60;6.82;;;22.70;56.20;;;;;;5098091;28;20036;-72
2023/07/21 08:35:08;;;;;;;6.93;6.32;;;22.80;55.80;;;;;;5077856;28;20059;-73
2023/07/21 08:37:34;;;;;;;7.85;6.38;;;23.10;56.00;;;;;;5089377;28;20040;-72
2023/07/21 08:40:00;;;;;;;6.57;5.97;;;23.20;55.70;;;;;;5095911;28;20659;-70
2023/07/21 08:42:26;;;;;;;7.22;5.88;;;23.40;55.70;;;;;;5075132;28;20384;-70
2023/07/21 08:44:54;;;;;;;5.80;5.07;;;23.40;55.40;;;;;;5081764;28;20122;-72
2023/07/21 08:47:21;;;;;;;6.28;5.55;;;23.50;55.20;;;;;;5082153;28;20047;-70
2023/07/21 08:49:48;;;;;;;5.75;4.68;;;23.70;55.20;;;;;;5071497;28;20025;-72
2023/07/21 08:52:14;;;;;;;6.93;4.70;;;23.80;55.00;;;;;;5077056;28;20036;-72
2023/07/21 08:54:40;;;;;;;5.05;4.53;;;23.90;54.80;;;;;;5080541;28;20373;-70
2023/07/21 08:57:07;;;;;;;4.57;4.18;;;24.10;54.80;;;;;;5069539;28;20106;-70
2023/07/21 08:59:33;;;;;;;4.88;4.38;;;24.20;54.60;;;;;;5080940;28;20139;-71
2023/07/21 09:01:59;;;;;;;4.25;3.90;;;24.30;54.40;;;;;;5081224;28;20101;-70
2023/07/21 09:04:26;;;;;;;4.82;4.43;;;24.40;54.20;;;;;;5082374;28;20028;-69
2023/07/21 09:06:57;;;;;;;4.80;3.30;;;24.50;54.10;;;;;;5089752;28;20042;-72
2023/07/21 09:09:27;;;;;;;4.15;3.75;;;24.60;54.00;;;;;;5079042;28;20380;-72
2023/07/21 09:12:03;;;;;;;5.57;4.28;;;24.70;53.70;;;;;;5081650;28;20161;-71
2023/07/21 09:14:39;;;;;;;7.03;4.13;;;24.80;53.40;;;;;;5070784;28;20942;-74
2023/07/21 09:17:07;;;;;;;4.07;3.42;;;25.00;53.40;;;;;;5091897;28;20359;-71
2023/07/21 09:19:37;;;;;;;3.67;2.92;;;25.10;53.20;;;;;;5081286;28;21074;-70
2023/07/21 09:22:04;;;;;;;4.63;3.38;;;25.20;52.80;;;;;;5081530;28;20031;-71
2023/07/21 09:24:30;;;;;;;3.20;2.90;;;25.30;52.60;;;;;;5082845;28;20123;-70
2023/07/21 09:27:17;;;;;;;3.30;2.88;;;25.40;52.40;;;;;;5079129;28;20059;-70
2023/07/21 09:29:45;;;;;;;4.68;3.13;;;25.60;52.00;;;;;;5080030;28;20496;-69
2023/07/21 09:32:17;;;;;;;3.50;3.20;;;25.70;51.90;;;;;;5068634;28;20043;-69
2023/07/21 09:34:53;;;;;;;4.18;3.03;;;25.80;51.60;;;;;;5082100;28;20125;-70
2023/07/21 09:37:19;;;;;;;3.45;3.15;;;25.90;51.40;;;;;;5090618;28;20048;-71
2023/07/21 09:39:50;;;;;;;3.55;3.25;;;26.00;51.30;;;;;;5085251;28;20059;-70
2023/07/21 09:42:17;;;;;;;4.05;3.30;;;26.10;51.10;;;;;;5087315;28;20044;-70
2023/07/21 09:44:43;;;;;;;5.50;3.58;;;26.30;50.90;;;;;;5083392;28;20854;-70
2023/07/21 09:47:10;;;;;;;3.78;3.22;;;26.40;50.70;;;;;;5078829;28;20077;-70
2023/07/21 09:49:36;;;;;;;10.68;3.67;;;26.50;50.40;;;;;;5071838;28;20031;-70
2023/07/21 09:52:02;;;;;;;3.13;2.92;;;26.60;50.30;;;;;;5083891;28;20717;-71
2023/07/21 09:54:31;;;;;;;3.05;2.42;;;26.80;50.10;;;;;;5080662;28;20031;-70
2023/07/21 09:56:57;;;;;;;3.28;2.78;;;26.90;49.80;;;;;;5071668;28;20036;-73
2023/07/21 09:59:25;;;;;;;4.55;3.50;;;27.00;49.50;;;;;;5078879;28;20077;-73
2023/07/21 10:01:51;;;;;;;3.38;3.08;;;27.20;49.30;;;;;;5071186;28;20468;-74
2023/07/21 10:04:19;;;;;;;4.35;3.08;;;27.40;49.10;;;;;;5079918;28;20032;-71
2023/07/21 10:06:45;;;;;;;2.90;2.22;;;27.50;48.90;;;;;;5079286;28;20105;-69
2023/07/21 10:09:11;;;;;;;2.72;2.53;;;27.60;48.50;;;;;;5080259;28;20038;-73
2023/07/21 10:11:43;;;;;;;3.28;2.47;;;27.70;48.40;;;;;;5078099;28;20058;-72
2023/07/21 10:14:29;;;;;;;3.25;2.95;;;28.00;48.10;;;;;;5080653;28;20104;-69
2023/07/21 10:16:56;;;;;;;3.13;2.50;;;28.20;47.70;;;;;;5085151;28;20164;-74
2023/07/21 10:19:22;;;;;;;2.70;2.50;;;28.40;47.60;;;;;;5069412;28;20535;-72
2023/07/21 10:21:49;;;;;;;2.92;2.63;;;28.70;47.30;;;;;;5082388;28;20689;-71
2023/07/21 10:24:26;;;;;;;2.55;2.10;;;28.80;47.00;;;;;;5077713;28;20124;-70
2023/07/21 10:27:05;;;;;;;3.00;2.25;;;29.00;46.70;;;;;;5093232;28;20052;-71
2023/07/21 10:29:32;;;;;;;2.70;2.15;;;29.00;46.30;;;;;;5079234;28;20040;-73
2023/07/21 10:31:59;;;;;;;3.47;1.85;;;29.00;46.40;;;;;;5070231;28;20033;-71
2023/07/21 10:34:40;;;;;;;2.50;2.22;;;29.00;46.50;;;;;;5073593;28;20048;-70
2023/07/21 10:37:07;;;;;;;2.35;1.92;;;29.10;46.40;;;;;;5082010;28;20123;-69
2023/07/21 10:39:38;;;;;;;3.47;1.92;;;29.20;46.30;;;;;;5083030;28;20120;-72
2023/07/21 10:42:07;;;;;;;2.30;1.67;;;29.30;46.00;;;;;;5083210;28;20039;-71
2023/07/21 10:44:40;;;;;;;2.17;1.90;;;29.50;45.80;;;;;;5079575;28;20047;-69
2023/07/21 10:47:18;;;;;;;2.90;2.03;;;29.60;45.40;;;;;;5071131;28;20039;-69
2023/07/21 10:49:46;;;;;;;3.22;2.20;;;29.60;45.20;;;;;;5069764;28;20487;-74
2023/07/21 10:52:12;;;;;;;5.35;2.00;;;29.50;45.40;;;;;;5080220;28;20181;-68
2023/07/21 10:54:38;;;;;;;2.22;2.00;;;29.30;45.30;;;;;;5080007;28;20641;-71
2023/07/21 10:57:05;;;;;;;4.93;2.05;;;29.10;45.40;;;;;;5071159;28;20043;-72
2023/07/21 10:59:32;;;;;;;2.75;1.77;;;29.00;45.60;;;;;;5084691;28;20392;-71
2023/07/21 11:01:59;;;;;;;4.68;1.73;;;28.70;45.60;;;;;;5085011;28;20036;-74
2023/07/21 11:04:24;;;;;;;2.72;2.20;;;28.70;45.80;;;;;;5079004;28;20032;-69
2023/07/21 11:06:58;;;;;;;3.30;2.42;;;28.70;45.80;;;;;;5085056;28;20035;-70
2023/07/21 11:09:27;;;;;;;3.50;2.13;;;28.70;45.70;;;;;;5082464;28;20054;-71
2023/07/21 11:11:55;;;;;;;2.30;1.75;;;28.60;45.60;;;;;;5086155;28;20044;-71
2023/07/21 11:14:26;;;;;;;4.85;2.00;;;28.50;45.50;;;;;;5085189;28;20220;-69
2023/07/21 11:17:03;;;;;;;4.25;2.15;;;28.40;45.60;;;;;;5088447;28;20036;-72
2023/07/21 11:19:31;;;;;;;2.60;1.42;;;28.20;45.70;;;;;;5077833;28;20043;-70
2023/07/21 11:21:57;;;;;;;2.53;1.55;;;28.10;46.00;;;;;;5078635;28;20031;-73
2023/07/21 11:24:25;;;;;;;2.72;1.70;;;28.00;46.20;;;;;;5082994;28;20040;-69
2023/07/21 11:26:59;;;;;;;5.53;2.17;;;27.80;46.40;;;;;;5089959;28;20067;-72
2023/07/21 11:29:29;;;;;;;3.22;2.22;;;27.70;46.50;;;;;;5079246;28;20039;-71
2023/07/21 11:31:55;;;;;;;3.63;1.73;;;27.50;46.70;;;;;;5079267;28;20782;-73
2023/07/21 11:34:25;;;;;;;5.03;1.65;;;27.40;46.90;;;;;;5088130;28;20040;-69
2023/07/21 11:36:59;;;;;;;2.72;2.00;;;27.30;47.10;;;;;;5096427;28;20035;-70
2023/07/21 11:39:29;;;;;;;2.75;1.92;;;27.10;47.20;;;;;;5078694;28;20219;-71
2023/07/21 11:41:57;;;;;;;2.15;1.60;;;27.00;47.30;;;;;;5082529;28;20031;-71
2023/07/21 11:44:25;;;;;;;5.15;1.60;;;26.90;47.50;;;;;;5073801;28;20032;-69
2023/07/21 11:47:04;;;;;;;2.47;1.88;;;26.80;47.60;;;;;;5073740;28;20036;-69
2023/07/21 11:49:32;;;;;;;2.72;1.58;;;26.80;47.70;;;;;;5070238;28;20741;-70
2023/07/21 11:52:03;;;;;;;3.05;1.48;;;26.80;47.80;;;;;;5074882;28;20172;-69
2023/07/21 11:54:36;;;;;;;3.70;1.60;;;26.90;47.80;;;;;;5075300;28;20038;-70
2023/07/21 11:57:03;;;;;;;2.47;1.65;;;26.90;47.60;;;;;;5070629;28;20036;-69
2023/07/21 11:59:29;;;;;;;2.53;1.63;;;26.90;47.60;;;;;;5074739;28;20035;-70
2023/07/21 12:01:56;;;;;;;4.55;2.08;;;26.80;47.70;;;;;;5074337;28;20047;-74
2023/07/21 12:04:23;;;;;;;4.43;1.38;;;26.70;47.80;;;;;;5076136;28;20040;-70
2023/07/21 12:06:51;;;;;;;1.45;1.20;;;26.60;48.00;;;;;;5061477;28;20042;-71
2023/07/21 12:09:19;;;;;;;3.63;1.67;;;26.40;48.10;;;;;;5080546;28;20039;-71
2023/07/21 12:11:46;;;;;;;3.80;1.65;;;26.30;48.30;;;;;;5077145;28;20032;-70
2023/07/21 12:14:13;;;;;;;2.97;1.63;;;26.10;48.50;;;;;;5076606;28;20195;-72
2023/07/21 12:16:39;;;;;;;3.58;1.67;;;26.00;48.70;;;;;;5079776;28;20792;-69
2023/07/21 12:19:06;;;;;;;3.08;1.40;;;25.90;48.80;;;;;;5076211;28;20101;-74
2023/07/21 12:21:34;;;;;;;2.72;1.92;;;25.90;48.80;;;;;;5080313;28;20384;-72
2023/07/21 12:23:59;;;;;;;1.90;1.33;;;25.90;48.80;;;;;;5089823;28;20027;-71
2023/07/21 12:26:25;;;;;;;3.05;1.85;;;26.10;48.80;;;;;;5084605;28;20509;-70
2023/07/21 12:28:51;;;;;;;1.85;1.20;;;26.30;48.70;;;;;;5082813;28;20035;-75
2023/07/21 12:31:18;;;;;;;2.92;1.40;;;26.70;48.20;;;;;;5086085;28;20118;-75
2023/07/21 12:33:45;;;;;;;2.20;1.30;;;27.10;47.60;;;;;;5080974;28;20051;-71
2023/07/21 12:36:12;;;;;;;2.05;1.27;;;27.50;47.20;;;;;;5075739;28;20035;-71
2023/07/21 12:38:38;;;;;;;1.50;1.30;;;27.80;46.90;;;;;;5079346;28;20127;-74
2023/07/21 12:41:04;;;;;;;3.88;1.30;;;28.10;46.50;;;;;;5074389;28;20039;-75
2023/07/21 12:43:30;;;;;;;1.52;1.23;;;28.40;46.10;;;;;;5078298;28;20036;-73
2023/07/21 12:45:56;;;;;;;2.67;1.40;;;28.60;45.70;;;;;;5077207;28;20089;-73
2023/07/21 12:48:22;;;;;;;3.78;1.30;;;28.80;45.50;;;;;;5067436;28;20107;-73
2023/07/21 12:50:48;;;;;;;2.58;1.40;;;28.80;45.50;;;;;;5074608;28;20027;-73
2023/07/21 12:53:14;;;;;;;5.32;1.75;;;28.80;45.50;;;;;;5078990;28;20036;-71
2023/07/21 12:55:40;;;;;;;2.63;1.10;;;28.70;45.40;;;;;;5071870;28;20040;-73